Terminal Aerodrome Forecast
Issued by NWS

Home | Current Version | Previous Version | Graphics & Text | Print | Product List | Glossary On
Versions: 1 2 3 4 5 6 7 8 9 10 11 12 13 14 15
000
FTUS45 KGGW 281650 AAC
TAFSDY
TAF AMD
KSDY 281650Z 2817/2912 VRB05KT P6SM -SHRA SCT030 BKN070
     FM281900 27005KT P6SM -SHRA BKN035
     FM290000 31009KT P6SM SCT130
     FM290300 VRB05KT P6SM FEW250
      AMD LTD TO CLD VIS AND WIND=

USA.gov is the U.S. government's official web portal to all federal, state and local government web resources and services.